»·PEaware :: N9510L KBUR-KLAS

N9510L :: KBUR-KLAS

FLIGHT INFORMATION

Flight Status: Arrived
Operator: Privately registered:
United States
More flights under this callsign
Pilot: Rich S. (24902)
Aircraft: CESSNA 172 SKYHAWK
(C172)
More flights by this aircraft type
Origin: KBUR Bob Hope-Burbank
United States
Destination: KLAS McCarran Intl
United States
More flights between these airports :: More routes between these airports
Route: +VNY3 DAG CRESO4
File this flight plan on PilotEdge
Remarks:
Altitude:
(Current/Filed)
11,000ft
Speed:
(Current/Filed)
110kts
Departed: 18-May-20 01:31 PM
Arrived: 18-May-20 03:38 PM
Distance/Time
Traveled:
193nm/2:07
Distance/Time
To Go:
Arrived

Flight Plot

Page will automatically refresh every two minutes.


Map Options




Map Legend


Flown Route
Filed Route
Departure Airport
Arrival Airport
Navaid (VOR, NDB)
Fix

Horizontal Profiles

Position Reports

Time Latitude Longitude Heading Altitude Ground
Speed
18-May-20 12:54 34.200215 -118.358844 258 721ft 0kts
18-May-20 12:55 34.200215 -118.358844 258 721ft 0kts
18-May-20 12:56 34.200215 -118.358844 258 721ft 0kts
18-May-20 12:57 34.200215 -118.358844 258 721ft 0kts
18-May-20 12:58 34.200215 -118.358844 258 721ft 0kts
18-May-20 12:59 34.200215 -118.358844 258 721ft 0kts
18-May-20 13:00 34.200215 -118.358844 258 721ft 0kts
18-May-20 13:01 34.200215 -118.358844 258 721ft 0kts
18-May-20 13:02 34.200215 -118.358844 258 721ft 0kts
18-May-20 13:03 34.200215 -118.358844 258 721ft 0kts
18-May-20 13:04 34.200215 -118.358844 258 721ft 0kts
18-May-20 13:05 34.200215 -118.358844 258 721ft 0kts
18-May-20 13:06 34.200215 -118.358844 258 721ft 0kts
18-May-20 13:07 34.200215 -118.358844 258 721ft 0kts
18-May-20 13:08 34.200215 -118.358844 258 721ft 0kts
18-May-20 13:09 34.200215 -118.358844 258 721ft 0kts
18-May-20 13:10 34.200215 -118.358844 258 721ft 0kts
18-May-20 13:11 34.200215 -118.358844 258 721ft 0kts
18-May-20 13:12 34.200215 -118.358844 258 721ft 0kts
18-May-20 13:13 34.200215 -118.358844 258 721ft 0kts
18-May-20 13:14 34.200215 -118.358844 258 721ft 0kts
18-May-20 13:15 34.200215 -118.358844 258 721ft 0kts
18-May-20 13:16 34.200215 -118.358844 258 721ft 0kts
18-May-20 13:17 34.200215 -118.358844 258 721ft 0kts
18-May-20 13:18 34.200215 -118.358844 258 721ft 0kts
18-May-20 13:19 34.200185 -118.358928 235 721ft 5kts
18-May-20 13:20 34.199846 -118.359102 133 720ft 3kts
18-May-20 13:21 34.199878 -118.358180 349 718ft 0kts
18-May-20 13:22 34.201116 -118.358536 347 724ft 0kts
18-May-20 13:23 34.203980 -118.359322 347 735ft 15kts
18-May-20 13:24 34.207685 -118.360347 347 749ft 8kts
18-May-20 13:25 34.209910 -118.360967 347 762ft 8kts
18-May-20 13:26 34.211919 -118.361383 28 768ft 0kts
18-May-20 13:27 34.211972 -118.361342 37 768ft 0kts
18-May-20 13:28 34.211994 -118.361319 41 768ft 0kts
18-May-20 13:29 34.211995 -118.361318 39 768ft 0kts
18-May-20 13:30 34.209380 -118.359685 167 758ft 62kts
18-May-20 13:31 34.191253 -118.364096 215 1438ft 66kts
18-May-20 13:32 34.178007 -118.379772 225 2045ft 71kts
18-May-20 13:33 34.166346 -118.398346 267 2623ft 79kts
18-May-20 13:34 34.171975 -118.423415 297 3241ft 80kts
18-May-20 13:35 34.182934 -118.446428 315 3843ft 80kts
18-May-20 13:36 34.200071 -118.437600 58 4360ft 85kts
18-May-20 13:37 34.220605 -118.435204 351 4889ft 84kts
18-May-20 13:38 34.244110 -118.435584 345 5409ft 83kts
18-May-20 13:39 34.267189 -118.440794 348 5875ft 85kts
18-May-20 13:40 34.290491 -118.447030 346 6320ft 86kts
18-May-20 13:41 34.314282 -118.451086 353 6796ft 87kts
18-May-20 13:42 34.338056 -118.450952 333 7279ft 85kts
18-May-20 13:43 34.361754 -118.457572 356 7713ft 88kts
18-May-20 13:44 34.386208 -118.455460 45 8091ft 95kts
18-May-20 13:45 34.402142 -118.431489 51 8554ft 91kts
18-May-20 13:46 34.417039 -118.406422 53 8943ft 93kts
18-May-20 13:47 34.431098 -118.380446 47 9347ft 92kts
18-May-20 13:48 34.448203 -118.357154 52 9724ft 92kts
18-May-20 13:49 34.463341 -118.331652 57 10077ft 93kts
18-May-20 13:50 34.479748 -118.307163 40 10417ft 94kts
18-May-20 13:52 34.495435 -118.281913 56 10742ft 94kts
18-May-20 13:53 34.512040 -118.255472 50 10906ft 109kts
18-May-20 13:54 34.529424 -118.224381 55 10957ft 113kts
18-May-20 13:55 34.545140 -118.189689 47 10885ft 118kts
18-May-20 13:56 34.569331 -118.163160 40 10898ft 118kts
18-May-20 13:57 34.589318 -118.134076 49 11000ft 116kts
18-May-20 13:58 34.609104 -118.102004 56 10968ft 118kts
18-May-20 13:59 34.625278 -118.068495 57 10997ft 118kts
18-May-20 14:00 34.635556 -118.030898 80 10994ft 118kts
18-May-20 14:01 34.636972 -117.990109 86 10886ft 123kts
18-May-20 14:02 34.640792 -117.950363 78 10997ft 110kts
18-May-20 14:03 34.646100 -117.911311 79 10863ft 124kts
18-May-20 14:04 34.649103 -117.871190 87 10859ft 120kts
18-May-20 14:05 34.653580 -117.833369 73 11010ft 104kts
18-May-20 14:06 34.661762 -117.797734 80 11034ft 122kts
18-May-20 14:06 34.665870 -117.764174 77 11065ft 125kts
18-May-20 14:08 34.674869 -117.714743 76 10955ft 128kts
18-May-20 14:09 34.685060 -117.673760 66 10931ft 128kts
18-May-20 14:09 34.695897 -117.641170 71 11002ft 122kts
18-May-20 14:10 34.703859 -117.601072 78 11049ft 124kts
18-May-20 14:12 34.718389 -117.556328 70 11043ft 129kts
18-May-20 14:12 34.728202 -117.522741 70 11030ft 128kts
18-May-20 14:13 34.736985 -117.482756 77 11096ft 126kts
18-May-20 14:14 34.745477 -117.440259 73 11044ft 124kts
18-May-20 14:15 34.755937 -117.400030 69 11088ft 121kts
18-May-20 14:16 34.768586 -117.359758 69 10933ft 131kts
18-May-20 14:17 34.777431 -117.319956 70 11076ft 123kts
18-May-20 14:18 34.789032 -117.280801 66 11099ft 124kts
18-May-20 14:19 34.800343 -117.240032 78 11016ft 128kts
18-May-20 14:20 34.805644 -117.197720 72 11040ft 123kts
18-May-20 14:21 34.819637 -117.159539 63 11030ft 126kts
18-May-20 14:22 34.828545 -117.118485 78 11041ft 124kts
18-May-20 14:23 34.837769 -117.077256 74 10992ft 127kts
18-May-20 14:24 34.847180 -117.037031 72 11048ft 125kts
18-May-20 14:25 34.859006 -116.996647 70 11031ft 125kts
18-May-20 14:26 34.869786 -116.955983 73 10990ft 127kts
18-May-20 14:27 34.878403 -116.915494 70 11078ft 122kts
18-May-20 14:28 34.889715 -116.875119 77 11031ft 125kts
18-May-20 14:29 34.895932 -116.833191 76 11072ft 120kts
18-May-20 14:30 34.907439 -116.793770 63 11102ft 121kts
18-May-20 14:31 34.919371 -116.755949 73 11088ft 126kts
18-May-20 14:32 34.929347 -116.714359 74 11049ft 126kts
18-May-20 14:33 34.936705 -116.673314 73 11081ft 125kts
18-May-20 14:34 34.950063 -116.634532 70 11097ft 126kts
18-May-20 14:35 34.958882 -116.593833 66 11118ft 125kts
18-May-20 14:36 34.972723 -116.554936 60 11120ft 125kts
18-May-20 14:37 34.990457 -116.518253 55 11115ft 126kts
18-May-20 14:38 35.007278 -116.480836 67 11110ft 125kts
18-May-20 14:39 35.023118 -116.443312 51 11146ft 122kts
18-May-20 14:40 35.048264 -116.414500 42 11175ft 120kts
18-May-20 14:41 35.068820 -116.380643 48 11148ft 125kts
18-May-20 14:42 35.089071 -116.346014 55 11122ft 127kts
18-May-20 14:43 35.108385 -116.309758 53 11111ft 125kts
18-May-20 14:44 35.132074 -116.277954 46 11083ft 125kts
18-May-20 14:45 35.152391 -116.243519 59 11097ft 125kts
18-May-20 14:46 35.169330 -116.206379 52 11082ft 127kts
18-May-20 14:47 35.189979 -116.172904 56 11134ft 125kts
18-May-20 14:48 35.208851 -116.136659 55 11086ft 128kts
18-May-20 14:49 35.226789 -116.100289 51 11113ft 122kts
18-May-20 14:50 35.248757 -116.068731 49 11170ft 118kts
18-May-20 14:51 35.268367 -116.036029 52 11205ft 121kts
18-May-20 14:52 35.289931 -116.001808 54 11053ft 127kts
18-May-20 14:53 35.308307 -115.965914 51 11088ft 119kts
18-May-20 14:54 35.327808 -115.932997 52 11114ft 114kts
18-May-20 14:55 35.348458 -115.901830 56 11061ft 119kts
18-May-20 14:56 35.366346 -115.867516 53 11025ft 120kts
18-May-20 14:57 35.385045 -115.834234 60 11034ft 118kts
18-May-20 14:58 35.403251 -115.801623 39 10973ft 117kts
18-May-20 14:59 35.427060 -115.773823 50 10584ft 119kts
18-May-20 15:00 35.443008 -115.738818 62 10133ft 114kts
18-May-20 15:01 35.459036 -115.705569 55 10090ft 116kts
18-May-20 15:02 35.474028 -115.670231 59 10081ft 116kts
18-May-20 15:03 35.490396 -115.633626 53 9935ft 118kts
18-May-20 15:04 35.511419 -115.607068 45 10148ft 108kts
18-May-20 15:05 35.534730 -115.578937 46 9944ft 118kts
18-May-20 15:06 35.553358 -115.548592 57 9979ft 105kts
18-May-20 15:07 35.569247 -115.520300 53 10073ft 98kts
18-May-20 15:08 35.586265 -115.492919 54 10061ft 101kts
18-May-20 15:09 35.602020 -115.464235 55 10075ft 101kts
18-May-20 15:10 35.616873 -115.433871 59 10064ft 103kts
18-May-20 15:11 35.633497 -115.405327 48 10057ft 102kts
18-May-20 15:12 35.653913 -115.376063 50 9397ft 125kts
18-May-20 15:13 35.671615 -115.342608 61 8989ft 106kts
18-May-20 15:14 35.688330 -115.310095 57 8957ft 121kts
18-May-20 15:15 35.706477 -115.275664 53 8986ft 119kts
18-May-20 15:16 35.725815 -115.242971 54 9015ft 119kts
18-May-20 15:17 35.747089 -115.210734 50 8849ft 131kts
18-May-20 15:18 35.768127 -115.173297 55 8088ft 131kts
18-May-20 15:19 35.790793 -115.138343 51 7282ft 132kts
18-May-20 15:20 35.813449 -115.107103 46 6984ft 108kts
18-May-20 15:21 35.837982 -115.091610 11 7030ft 97kts
18-May-20 15:22 35.868096 -115.085325 6 6938ft 118kts
18-May-20 15:23 35.895942 -115.078856 13 6984ft 102kts
18-May-20 15:24 35.922922 -115.069598 13 7067ft 102kts
18-May-20 15:25 35.952783 -115.064344 6 6679ft 117kts
18-May-20 15:26 35.983710 -115.060512 11 6239ft 111kts
18-May-20 15:27 36.019681 -115.054573 357 4701ft 153kts
18-May-20 15:28 36.052467 -115.055953 357 5184ft 104kts
18-May-20 15:29 36.082275 -115.059291 12 5458ft 106kts
18-May-20 15:30 36.109431 -115.045714 23 5307ft 102kts
18-May-20 15:31 36.137607 -115.045402 336 4867ft 107kts
18-May-20 15:32 36.156834 -115.074198 285 3968ft 123kts
18-May-20 15:33 36.156963 -115.114874 241 3226ft 119kts
18-May-20 15:34 36.134103 -115.135876 203 3101ft 91kts
18-May-20 15:35 36.114191 -115.147635 204 2769ft 72kts
18-May-20 15:36 36.096972 -115.157972 200 2094ft 54kts
18-May-20 15:37 36.091098 -115.161308 204 2117ft 26kts
18-May-20 15:38 36.089225 -115.163241 310 2128ft 15kts
18-May-20 15:39 36.089424 -115.163585 295 2129ft 0kts
18-May-20 15:41 36.089424 -115.163585 295 2129ft 0kts

Navigation Log

Ident Type
Flight plan parsing failed, navigation log unavailable